Time;durP1;ratioP1;P1;durP2;ratioP2;P2;SDS_P1;SDS_P2;PMS_P1;PMS_P2;Temp;Humidity;BMP_temperature;BMP_pressure;BME280_temperature;BME280_humidity;BME280_pressure;Samples;Min_cycle;Max_cycle;Signal;HPM_P1;HPM_P2
2023/03/13 00:00:52;;;;;;;6.40;1.52;;;9.20;99.90;;;;;;4948463;28;20067;-72
2023/03/13 00:03:18;;;;;;;11.68;1.83;;;9.20;99.90;;;;;;4963136;28;20415;-72
2023/03/13 00:05:44;;;;;;;6.75;1.52;;;9.20;99.90;;;;;;4950297;28;20043;-73
2023/03/13 00:08:10;;;;;;;7.78;2.25;;;9.20;99.90;;;;;;4965595;28;20042;-73
2023/03/13 00:10:37;;;;;;;9.88;1.00;;;9.20;99.90;;;;;;4967450;28;20028;-73
2023/03/13 00:13:04;;;;;;;5.55;1.30;;;9.30;99.90;;;;;;4970938;28;20029;-73
2023/03/13 00:15:30;;;;;;;5.35;1.17;;;9.30;99.90;;;;;;4954594;29;20070;-72
2023/03/13 00:17:56;;;;;;;9.38;1.05;;;9.30;99.90;;;;;;4963369;28;20050;-72
2023/03/13 00:20:22;;;;;;;3.08;1.38;;;9.30;99.90;;;;;;4970581;28;20031;-73
2023/03/13 00:22:47;;;;;;;10.75;2.13;;;9.30;99.90;;;;;;4960125;28;20027;-72
2023/03/13 00:25:13;;;;;;;3.85;1.42;;;9.40;99.90;;;;;;4973230;28;20030;-72
2023/03/13 00:27:39;;;;;;;9.45;1.77;;;9.40;99.90;;;;;;4964241;28;20039;-72
2023/03/13 00:30:05;;;;;;;6.20;1.65;;;9.50;99.90;;;;;;4973071;28;20042;-73
2023/03/13 00:32:32;;;;;;;10.95;1.83;;;9.50;99.90;;;;;;4957815;28;20472;-72
2023/03/13 00:34:57;;;;;;;8.75;1.40;;;9.60;99.90;;;;;;4972694;28;20031;-73
2023/03/13 00:37:23;;;;;;;5.10;1.20;;;9.60;99.90;;;;;;4958469;28;20023;-73
2023/03/13 00:39:49;;;;;;;3.70;1.10;;;9.60;99.90;;;;;;4971411;28;20038;-74
2023/03/13 00:42:14;;;;;;;8.55;1.67;;;9.70;99.90;;;;;;4959672;28;20372;-74
2023/03/13 00:44:40;;;;;;;6.05;1.65;;;9.70;99.90;;;;;;4968657;28;20615;-73
2023/03/13 00:47:06;;;;;;;6.93;1.30;;;9.70;99.90;;;;;;4960540;28;20027;-72
2023/03/13 00:49:32;;;;;;;23.17;1.73;;;9.70;99.90;;;;;;4968815;28;20395;-74
2023/03/13 00:51:58;;;;;;;11.27;2.47;;;9.70;99.90;;;;;;4960902;28;20483;-73
2023/03/13 00:54:24;;;;;;;6.50;1.88;;;9.80;99.90;;;;;;4960804;28;20086;-73
2023/03/13 00:56:50;;;;;;;3.13;1.00;;;9.80;99.90;;;;;;4955839;28;20031;-73
2023/03/13 00:59:15;;;;;;;9.77;1.30;;;9.90;99.90;;;;;;4966008;28;20031;-72
2023/03/13 01:01:41;;;;;;;5.57;2.00;;;9.90;99.90;;;;;;4954772;28;20027;-72
2023/03/13 01:04:10;;;;;;;4.32;1.33;;;9.90;99.90;;;;;;4939937;28;20063;-73
2023/03/13 01:06:41;;;;;;;9.70;1.83;;;10.00;99.90;;;;;;4966489;28;20069;-72
2023/03/13 01:09:09;;;;;;;20.27;2.92;;;10.00;99.90;;;;;;4971551;28;20055;-74
2023/03/13 01:11:38;;;;;;;6.70;0.60;;;10.10;99.90;;;;;;4966029;28;20045;-74
2023/03/13 01:14:08;;;;;;;4.75;1.52;;;10.10;99.90;;;;;;4971619;28;20154;-71
2023/03/13 01:16:36;;;;;;;12.25;1.42;;;10.10;99.90;;;;;;4966535;28;20034;-72
2023/03/13 01:19:06;;;;;;;6.15;1.40;;;10.00;99.90;;;;;;4972067;28;20689;-72
2023/03/13 01:21:31;;;;;;;5.82;1.60;;;10.00;99.90;;;;;;4965017;28;20018;-72
2023/03/13 01:23:57;;;;;;;7.38;1.65;;;10.10;99.90;;;;;;4972496;28;20041;-72
2023/03/13 01:26:25;;;;;;;3.03;0.98;;;10.10;99.90;;;;;;4966200;28;20026;-73
2023/03/13 01:28:50;;;;;;;6.90;1.15;;;10.10;99.90;;;;;;4972473;28;20054;-73
2023/03/13 01:31:22;;;;;;;1.08;0.85;;;10.20;99.90;;;;;;4965812;28;20523;-73
2023/03/13 01:33:52;;;;;;;9.38;1.88;;;10.20;99.90;;;;;;4971784;28;20475;-73
2023/03/13 01:36:18;;;;;;;12.35;1.70;;;10.20;99.90;;;;;;4961722;28;20113;-73
2023/03/13 01:38:48;;;;;;;5.05;1.23;;;10.10;99.90;;;;;;4953220;29;20113;-73
2023/03/13 01:41:14;;;;;;;5.83;1.33;;;10.20;99.90;;;;;;4980173;28;20026;-73
2023/03/13 01:43:40;;;;;;;5.38;1.55;;;10.20;99.90;;;;;;4974036;28;20041;-73
2023/03/13 01:46:23;;;;;;;3.10;1.20;;;10.20;99.90;;;;;;4963676;28;20042;-73
2023/03/13 01:49:03;;;;;;;9.73;0.93;;;10.30;99.90;;;;;;4970970;28;20031;-74
2023/03/13 01:51:37;;;;;;;2.03;0.93;;;10.40;99.90;;;;;;4961072;28;20066;-72
2023/03/13 01:54:10;;;;;;;5.07;1.20;;;10.50;99.90;;;;;;4955307;28;20030;-73
2023/03/13 01:56:44;;;;;;;7.10;1.00;;;10.50;99.90;;;;;;4983708;23;20511;-74
2023/03/13 01:59:16;;;;;;;4.38;1.30;;;10.50;99.90;;;;;;4989866;28;20433;-75
2023/03/13 02:01:45;;;;;;;6.93;1.65;;;10.60;99.90;;;;;;4983888;28;20406;-75
2023/03/13 02:04:15;;;;;;;4.80;0.82;;;10.70;99.90;;;;;;4978045;28;20030;-75
2023/03/13 02:06:45;;;;;;;11.82;1.63;;;10.70;99.90;;;;;;4965291;28;20344;-74
2023/03/13 02:09:20;;;;;;;13.87;2.80;;;10.80;99.90;;;;;;4977805;28;20035;-74
2023/03/13 02:12:08;;;;;;;5.65;0.82;;;10.90;99.90;;;;;;4982390;28;20030;-74
2023/03/13 02:14:37;;;;;;;9.02;1.52;;;11.00;99.90;;;;;;4979430;28;20125;-75
2023/03/13 02:17:05;;;;;;;3.45;1.05;;;11.10;99.90;;;;;;4979452;28;20026;-74
2023/03/13 02:19:47;;;;;;;4.90;1.13;;;11.10;99.90;;;;;;4985208;28;20030;-75
2023/03/13 02:22:37;;;;;;;;;;;11.20;99.90;;;;;;4981277;28;20047;-75
2023/03/13 02:25:22;;;;;;;8.50;1.60;;;11.20;99.90;;;;;;4974256;28;19914;-74
2023/03/13 02:27:49;;;;;;;3.95;0.85;;;11.20;99.90;;;;;;4979603;28;20494;-74
2023/03/13 02:30:15;;;;;;;12.43;1.95;;;11.20;99.90;;;;;;4991046;28;20038;-75
2023/03/13 02:32:43;;;;;;;2.40;1.02;;;11.20;99.90;;;;;;4960824;28;20035;-75
2023/03/13 02:35:13;;;;;;;3.40;0.60;;;11.20;99.90;;;;;;4990173;28;20049;-75
2023/03/13 02:37:42;;;;;;;5.40;0.93;;;11.30;99.90;;;;;;4977114;28;20039;-75
2023/03/13 02:40:13;;;;;;;5.75;1.02;;;11.30;99.90;;;;;;4989219;28;20470;-75
2023/03/13 02:42:43;;;;;;;4.07;1.13;;;11.20;99.90;;;;;;4976527;28;20113;-75
2023/03/13 02:45:13;;;;;;;1.70;0.63;;;11.30;99.90;;;;;;4989836;28;20042;-75
2023/03/13 02:47:39;;;;;;;3.70;1.38;;;11.30;99.90;;;;;;4960904;28;20038;-75
2023/03/13 02:50:05;;;;;;;6.78;1.42;;;11.30;99.90;;;;;;4990221;28;20589;-75
2023/03/13 02:52:42;;;;;;;6.00;0.90;;;11.30;99.90;;;;;;4978795;28;20062;-75
2023/03/13 02:55:34;;;;;;;3.17;0.98;;;11.30;99.90;;;;;;4989684;28;20022;-75
2023/03/13 02:58:00;;;;;;;6.30;1.35;;;11.40;99.90;;;;;;4977961;28;20030;-75
2023/03/13 03:00:26;;;;;;;4.03;0.60;;;11.40;99.90;;;;;;4971937;28;20387;-75
2023/03/13 03:02:55;;;;;;;5.07;0.63;;;11.40;99.90;;;;;;4977089;28;20105;-75
2023/03/13 03:05:21;;;;;;;3.80;0.60;;;11.30;99.90;;;;;;4991949;28;20413;-74
2023/03/13 03:07:49;;;;;;;2.65;0.82;;;11.30;99.90;;;;;;4978778;28;20037;-75
2023/03/13 03:10:16;;;;;;;5.53;0.98;;;11.30;99.90;;;;;;4991287;28;20129;-75
2023/03/13 03:12:41;;;;;;;10.93;0.93;;;11.30;99.90;;;;;;4976990;28;20501;-75
2023/03/13 03:15:08;;;;;;;5.95;1.10;;;11.20;99.90;;;;;;4983110;28;20023;-75
2023/03/13 03:17:34;;;;;;;1.27;0.80;;;11.30;99.90;;;;;;4978223;28;20034;-75
2023/03/13 03:20:00;;;;;;;3.67;1.05;;;11.30;99.90;;;;;;4989041;28;20505;-74
2023/03/13 03:22:25;;;;;;;3.65;0.70;;;11.30;99.90;;;;;;4979310;28;20125;-74
2023/03/13 03:24:51;;;;;;;4.63;1.40;;;11.20;99.90;;;;;;4987494;28;20041;-74
2023/03/13 03:27:17;;;;;;;9.13;0.77;;;11.20;99.90;;;;;;4975456;28;20038;-75
2023/03/13 03:29:42;;;;;;;2.17;0.57;;;11.10;99.90;;;;;;4984839;28;20402;-74
2023/03/13 03:32:08;;;;;;;8.75;0.68;;;11.10;99.90;;;;;;4981436;28;20041;-75
2023/03/13 03:34:34;;;;;;;4.57;1.00;;;11.10;99.90;;;;;;4983955;28;20060;-75
2023/03/13 03:37:00;;;;;;;3.47;0.95;;;11.10;99.90;;;;;;4982408;28;20026;-75
2023/03/13 03:39:25;;;;;;;2.85;0.50;;;11.00;99.90;;;;;;4982994;28;20451;-75
2023/03/13 03:41:51;;;;;;;0.60;0.45;;;10.90;99.90;;;;;;4983787;28;20057;-74
2023/03/13 03:44:17;;;;;;;4.53;1.10;;;10.90;99.90;;;;;;4983269;28;20060;-74
2023/03/13 03:46:42;;;;;;;4.80;0.88;;;10.90;99.90;;;;;;4983533;28;20045;-75
2023/03/13 03:49:08;;;;;;;1.42;0.30;;;10.90;99.90;;;;;;4982847;28;20038;-75
2023/03/13 03:51:34;;;;;;;0.55;0.55;;;10.80;99.90;;;;;;4982085;28;20081;-75
2023/03/13 03:54:00;;;;;;;1.85;0.65;;;10.80;99.90;;;;;;4983117;28;20700;-75
2023/03/13 03:56:25;;;;;;;1.25;0.50;;;10.80;99.90;;;;;;4983530;28;20037;-74
2023/03/13 03:58:51;;;;;;;1.67;0.50;;;10.80;99.90;;;;;;4981667;28;20149;-75
2023/03/13 04:01:17;;;;;;;2.08;1.58;;;10.80;99.90;;;;;;4983197;28;20110;-74
2023/03/13 04:03:42;;;;;;;2.05;0.75;;;10.80;99.90;;;;;;4983008;28;20026;-75
2023/03/13 04:06:08;;;;;;;1.00;0.45;;;10.80;99.90;;;;;;4983514;28;20043;-74
2023/03/13 04:08:35;;;;;;;2.40;0.88;;;10.80;99.90;;;;;;4983007;28;20023;-75
2023/03/13 04:11:01;;;;;;;0.68;0.20;;;10.80;99.90;;;;;;4982827;28;20548;-75
2023/03/13 04:13:27;;;;;;;4.95;0.82;;;10.70;99.90;;;;;;4983002;28;20027;-75
2023/03/13 04:15:53;;;;;;;0.32;0.20;;;10.80;99.90;;;;;;4972809;28;20038;-74
2023/03/13 04:18:19;;;;;;;2.95;1.08;;;10.70;99.90;;;;;;4982682;28;20606;-74
2023/03/13 04:20:45;;;;;;;4.65;0.77;;;10.70;99.90;;;;;;4985101;28;20483;-75
2023/03/13 04:23:11;;;;;;;4.20;1.08;;;10.80;99.90;;;;;;4981161;28;20089;-75
2023/03/13 04:25:37;;;;;;;0.82;0.38;;;10.70;99.90;;;;;;5002330;28;20550;-75
2023/03/13 04:28:03;;;;;;;3.67;1.20;;;10.80;99.90;;;;;;4979188;28;20518;-74
2023/03/13 04:30:28;;;;;;;1.80;0.77;;;10.80;99.90;;;;;;4987854;28;20406;-75
2023/03/13 04:32:54;;;;;;;1.15;0.70;;;10.70;99.90;;;;;;4976476;28;20524;-74
2023/03/13 04:35:20;;;;;;;5.10;0.63;;;10.70;99.90;;;;;;4989698;28;20430;-74
2023/03/13 04:37:46;;;;;;;2.30;0.45;;;10.70;99.90;;;;;;4975969;28;20023;-75
2023/03/13 04:40:12;;;;;;;0.47;0.38;;;10.60;99.90;;;;;;4988592;28;20034;-75
2023/03/13 04:42:40;;;;;;;1.65;0.63;;;10.70;99.90;;;;;;4975775;28;20729;-75
2023/03/13 04:45:11;;;;;;;0.65;0.15;;;10.80;99.90;;;;;;4988094;28;20042;-75
2023/03/13 04:47:37;;;;;;;0.55;0.43;;;10.70;99.90;;;;;;4979750;28;20177;-75
2023/03/13 04:50:03;;;;;;;1.30;0.73;;;10.80;99.90;;;;;;4992157;28;20561;-75
2023/03/13 04:52:29;;;;;;;3.40;1.15;;;10.70;99.90;;;;;;4981618;28;20391;-75
2023/03/13 04:54:55;;;;;;;1.58;0.75;;;10.70;99.90;;;;;;4991371;28;20034;-74
2023/03/13 04:57:20;;;;;;;0.68;0.35;;;10.80;99.90;;;;;;4982408;28;20038;-75
2023/03/13 04:59:46;;;;;;;3.13;0.60;;;10.80;99.90;;;;;;4990046;28;20041;-74
2023/03/13 05:02:12;;;;;;;1.15;0.60;;;10.90;99.90;;;;;;4983810;28;20042;-74
2023/03/13 05:04:38;;;;;;;0.82;0.47;;;10.90;99.90;;;;;;4987451;28;20034;-74
2023/03/13 05:07:04;;;;;;;1.35;0.77;;;10.90;99.90;;;;;;4989794;28;20041;-74
2023/03/13 05:09:30;;;;;;;0.55;0.30;;;11.00;99.90;;;;;;4979475;28;20031;-74
2023/03/13 05:11:55;;;;;;;2.40;0.98;;;11.00;99.90;;;;;;4977377;28;20034;-74
2023/03/13 05:14:21;;;;;;;0.82;0.68;;;11.00;99.90;;;;;;5000358;28;20062;-74
2023/03/13 05:16:47;;;;;;;0.88;0.38;;;11.00;99.90;;;;;;4980136;28;20026;-74
2023/03/13 05:19:12;;;;;;;2.17;0.60;;;11.00;99.90;;;;;;4985166;28;20073;-73
2023/03/13 05:21:38;;;;;;;1.55;0.60;;;11.10;99.90;;;;;;4986132;28;20367;-74
2023/03/13 05:24:04;;;;;;;2.08;0.75;;;11.10;99.90;;;;;;4985362;28;20041;-75
2023/03/13 05:26:30;;;;;;;1.98;0.70;;;11.10;99.90;;;;;;4988167;28;20034;-74
2023/03/13 05:28:56;;;;;;;1.42;0.45;;;11.20;99.90;;;;;;4985264;28;20133;-75
2023/03/13 05:31:21;;;;;;;1.40;0.95;;;11.20;99.90;;;;;;4984350;28;20034;-75
2023/03/13 05:33:47;;;;;;;1.17;0.50;;;11.20;99.90;;;;;;4951387;28;20030;-74
2023/03/13 05:36:13;;;;;;;3.13;1.25;;;11.30;99.90;;;;;;4984599;28;20398;-74
2023/03/13 05:38:39;;;;;;;0.55;0.50;;;11.30;99.90;;;;;;4985045;28;20518;-75
2023/03/13 05:41:05;;;;;;;0.65;0.40;;;11.30;99.90;;;;;;4985361;28;20085;-74
2023/03/13 05:43:30;;;;;;;3.85;0.80;;;11.30;99.90;;;;;;4985312;28;20180;-74
2023/03/13 05:45:56;;;;;;;1.85;0.52;;;11.30;99.90;;;;;;4969019;28;20038;-69
2023/03/13 05:48:22;;;;;;;2.03;0.45;;;11.30;99.90;;;;;;4985480;28;20101;-70
2023/03/13 05:50:48;;;;;;;0.75;0.50;;;11.30;99.90;;;;;;4973997;28;20038;-70
2023/03/13 05:53:13;;;;;;;0.60;0.30;;;11.30;99.90;;;;;;4987268;28;20161;-71
2023/03/13 05:55:39;;;;;;;0.68;0.32;;;11.30;99.90;;;;;;4969224;28;20479;-72
2023/03/13 05:58:05;;;;;;;4.50;0.90;;;11.20;99.90;;;;;;4981481;28;20023;-71
2023/03/13 06:00:31;;;;;;;5.10;0.60;;;11.30;99.90;;;;;;4980504;28;20031;-71
2023/03/13 06:02:56;;;;;;;3.05;0.40;;;11.30;99.90;;;;;;4989192;28;20038;-71
2023/03/13 06:05:22;;;;;;;1.27;0.50;;;11.30;99.90;;;;;;4982591;28;20475;-71
2023/03/13 06:07:49;;;;;;;3.53;0.50;;;11.40;99.90;;;;;;4988737;28;20034;-72
2023/03/13 06:10:15;;;;;;;0.38;0.35;;;11.40;99.90;;;;;;4983540;28;20023;-71
2023/03/13 06:12:41;;;;;;;0.80;0.50;;;11.40;99.90;;;;;;4986394;28;20027;-72
2023/03/13 06:15:08;;;;;;;1.13;0.65;;;11.40;99.90;;;;;;4980148;28;20471;-71
2023/03/13 06:17:35;;;;;;;0.73;0.40;;;11.40;99.90;;;;;;4978880;28;20022;-71
2023/03/13 06:20:03;;;;;;;1.23;0.60;;;11.40;99.90;;;;;;4976610;28;20053;-71
2023/03/13 06:22:29;;;;;;;3.03;1.10;;;11.50;99.90;;;;;;4986618;28;20057;-69
2023/03/13 06:24:55;;;;;;;0.95;0.43;;;11.50;99.90;;;;;;4984113;28;20115;-71
2023/03/13 06:27:21;;;;;;;3.95;0.82;;;11.50;99.90;;;;;;4985090;28;20065;-72
2023/03/13 06:29:47;;;;;;;0.85;0.50;;;11.50;99.90;;;;;;4985902;28;20054;-71
2023/03/13 06:32:13;;;;;;;0.80;0.30;;;11.60;99.90;;;;;;4983936;28;20133;-72
2023/03/13 06:34:39;;;;;;;0.65;0.40;;;11.60;99.90;;;;;;4972289;28;20034;-71
2023/03/13 06:37:04;;;;;;;1.25;0.50;;;11.60;99.90;;;;;;4967131;28;20502;-72
2023/03/13 06:39:30;;;;;;;2.60;0.60;;;11.70;99.90;;;;;;4983618;28;20022;-72
2023/03/13 06:41:56;;;;;;;0.47;0.25;;;11.70;99.90;;;;;;4985373;28;20035;-72
2023/03/13 06:44:21;;;;;;;0.43;0.20;;;11.80;99.90;;;;;;4982555;28;20030;-72
2023/03/13 06:46:47;;;;;;;1.05;0.40;;;11.90;99.90;;;;;;4969832;28;20042;-72
2023/03/13 06:49:13;;;;;;;3.83;0.52;;;12.00;99.90;;;;;;4982314;28;20027;-72
2023/03/13 06:51:38;;;;;;;6.53;2.40;;;12.10;99.90;;;;;;4974552;28;20442;-72
2023/03/13 06:54:04;;;;;;;1.45;0.47;;;12.10;99.90;;;;;;4982976;28;20018;-72
2023/03/13 06:56:31;;;;;;;2.95;0.50;;;12.20;99.90;;;;;;4982667;28;20050;-71
2023/03/13 06:58:57;;;;;;;0.65;0.40;;;12.20;99.90;;;;;;4980195;28;20475;-72
2023/03/13 07:01:23;;;;;;;4.22;0.20;;;12.30;99.90;;;;;;4979471;28;20027;-72
2023/03/13 07:03:48;;;;;;;0.03;0.03;;;12.40;99.90;;;;;;4967233;28;20063;-74
2023/03/13 07:06:15;;;;;;;2.05;0.35;;;12.40;99.90;;;;;;4988116;28;20061;-71
2023/03/13 07:08:42;;;;;;;0.20;0.20;;;12.40;99.90;;;;;;4975477;28;20505;-71
2023/03/13 07:11:11;;;;;;;2.92;0.25;;;12.50;99.90;;;;;;4978302;28;20077;-69
2023/03/13 07:13:38;;;;;;;0.55;0.17;;;12.50;99.90;;;;;;4970715;28;20062;-71
2023/03/13 07:16:08;;;;;;;1.38;0.50;;;12.50;99.90;;;;;;4981739;28;20046;-73
2023/03/13 07:18:34;;;;;;;6.03;0.55;;;12.50;99.90;;;;;;4969666;28;20027;-71
2023/03/13 07:21:05;;;;;;;0.75;0.30;;;12.60;99.90;;;;;;4978802;28;20093;-70
2023/03/13 07:23:33;;;;;;;0.63;0.30;;;12.60;99.90;;;;;;4989224;28;20064;-70
2023/03/13 07:26:06;;;;;;;0.20;0.20;;;12.60;99.90;;;;;;4976896;28;20038;-70
2023/03/13 07:28:32;;;;;;;0.65;0.45;;;12.70;99.90;;;;;;4988298;28;20506;-69
2023/03/13 07:31:16;;;;;;;0.47;0.20;;;12.70;99.90;;;;;;4978991;28;20610;-70
2023/03/13 07:33:43;;;;;;;0.57;0.28;;;12.70;99.90;;;;;;4985619;28;20034;-71
2023/03/13 07:36:11;;;;;;;0.40;0.25;;;12.80;99.90;;;;;;4980629;28;20058;-69
2023/03/13 07:38:36;;;;;;;0.77;0.40;;;12.90;99.90;;;;;;4986735;28;20037;-70
2023/03/13 07:41:03;;;;;;;2.67;0.70;;;12.90;99.90;;;;;;4979568;28;20019;-70
2023/03/13 07:43:30;;;;;;;0.68;0.38;;;12.90;99.90;;;;;;4989749;28;20033;-69
2023/03/13 07:46:04;;;;;;;2.35;0.93;;;13.00;99.90;;;;;;4962475;28;20018;-69
2023/03/13 07:48:34;;;;;;;0.82;0.20;;;13.10;99.90;;;;;;4970691;28;20026;-69
2023/03/13 07:51:00;;;;;;;0.90;0.45;;;13.10;99.90;;;;;;4988084;28;20026;-69
2023/03/13 07:53:26;;;;;;;0.77;0.40;;;13.20;99.90;;;;;;4984621;28;20038;-69
2023/03/13 07:58:40;;;;;;;0.10;0.10;;;13.30;99.90;;;;;;4963920;28;20062;-68
2023/03/13 08:01:11;;;;;;;0.73;0.32;;;13.30;99.90;;;;;;4969440;28;20399;-68
2023/03/13 08:03:37;;;;;;;0.93;0.20;;;13.30;99.90;;;;;;4966342;28;20551;-68
2023/03/13 08:06:08;;;;;;;1.90;0.50;;;13.40;99.90;;;;;;4970075;28;20481;-66
2023/03/13 08:08:35;;;;;;;1.17;0.75;;;13.60;99.90;;;;;;4960579;28;20050;-66
2023/03/13 08:11:13;;;;;;;0.47;0.32;;;13.60;99.90;;;;;;4951778;28;20039;-67
2023/03/13 08:13:40;;;;;;;0.35;0.22;;;13.60;99.90;;;;;;4945560;29;20385;-67
2023/03/13 08:16:11;;;;;;;1.55;0.28;;;13.60;99.90;;;;;;4966563;28;20037;-66
2023/03/13 08:18:39;;;;;;;;;;;13.70;99.90;;;;;;4961766;28;20031;-66
2023/03/13 08:21:18;;;;;;;1.77;0.50;;;13.80;99.90;;;;;;4968492;28;20359;-66
2023/03/13 08:23:44;;;;;;;1.90;0.40;;;13.80;99.90;;;;;;4965593;28;20046;-66
2023/03/13 08:26:16;;;;;;;3.55;0.45;;;13.80;99.90;;;;;;4970195;28;20383;-66
2023/03/13 08:28:45;;;;;;;3.10;0.77;;;13.90;99.90;;;;;;4949566;28;20467;-66
2023/03/13 08:31:21;;;;;;;1.95;1.00;;;14.00;99.90;;;;;;4969652;28;20483;-68
2023/03/13 08:33:47;;;;;;;0.50;0.32;;;14.00;99.90;;;;;;4966095;28;20023;-66
2023/03/13 08:36:19;;;;;;;1.08;0.45;;;14.00;99.90;;;;;;4954773;28;20043;-67
2023/03/13 08:38:46;;;;;;;4.10;0.88;;;14.00;99.90;;;;;;4965572;28;20070;-67
2023/03/13 08:41:22;;;;;;;0.38;0.28;;;14.10;99.90;;;;;;4954584;28;20031;-67
2023/03/13 08:43:50;;;;;;;1.20;0.30;;;14.10;99.90;;;;;;4951511;28;20499;-66
2023/03/13 08:46:16;;;;;;;1.30;0.68;;;14.10;99.90;;;;;;4969228;28;20046;-66
2023/03/13 08:48:42;;;;;;;0.35;0.28;;;14.20;99.90;;;;;;4950672;29;20023;-66
2023/03/13 08:51:13;;;;;;;1.25;0.52;;;14.20;99.90;;;;;;4954877;28;20506;-66
2023/03/13 08:53:41;;;;;;;11.23;1.05;;;14.20;99.90;;;;;;4969343;28;20032;-66
2023/03/13 08:56:10;;;;;;;6.63;1.05;;;14.30;99.90;;;;;;4955136;29;20046;-66
2023/03/13 08:58:37;;;;;;;1.05;0.57;;;14.20;99.90;;;;;;4949984;28;20032;-66
2023/03/13 09:01:05;;;;;;;1.08;0.60;;;14.30;99.90;;;;;;4955095;28;20164;-66
2023/03/13 09:03:32;;;;;;;0.45;0.38;;;14.20;99.90;;;;;;4949365;28;20039;-66
2023/03/13 09:05:59;;;;;;;0.82;0.45;;;14.30;99.90;;;;;;4954802;29;20126;-66
2023/03/13 09:08:26;;;;;;;4.13;1.02;;;14.20;99.90;;;;;;4963659;28;20031;-66
2023/03/13 09:10:59;;;;;;;0.95;0.57;;;14.10;99.90;;;;;;4954896;28;20032;-67
2023/03/13 09:13:27;;;;;;;1.45;0.55;;;14.10;99.90;;;;;;4963506;28;20031;-67
2023/03/13 09:16:06;;;;;;;1.17;0.63;;;14.00;99.90;;;;;;4954641;28;20074;-67
2023/03/13 09:18:33;;;;;;;3.83;1.27;;;14.00;99.90;;;;;;4949339;28;20028;-66
2023/03/13 09:20:58;;;;;;;1.20;0.57;;;14.00;99.90;;;;;;4969222;28;20038;-66
2023/03/13 09:23:24;;;;;;;1.27;0.73;;;14.10;99.90;;;;;;4949290;28;20031;-65
2023/03/13 09:25:56;;;;;;;0.40;0.20;;;14.10;99.90;;;;;;4969401;28;20055;-65
2023/03/13 09:28:23;;;;;;;0.57;0.30;;;14.00;99.90;;;;;;4963402;28;20035;-65
2023/03/13 09:30:49;;;;;;;7.95;2.35;;;14.00;99.90;;;;;;4968945;28;20058;-68
2023/03/13 09:33:18;;;;;;;2.97;0.77;;;13.90;99.90;;;;;;4948047;28;20480;-69
2023/03/13 09:35:49;;;;;;;3.55;0.70;;;14.00;99.90;;;;;;4969107;28;20391;-66
2023/03/13 09:38:17;;;;;;;17.00;2.25;;;13.80;99.90;;;;;;4932056;29;20443;-67
2023/03/13 09:40:51;;;;;;;16.05;2.38;;;13.90;99.90;;;;;;4952160;28;20031;-68
2023/03/13 09:43:52;;;;;;;0.77;0.43;;;13.90;99.90;;;;;;4946937;28;20066;-67
2023/03/13 09:46:32;;;;;;;18.45;3.33;;;13.90;99.90;;;;;;4968667;28;20035;-68
2023/03/13 09:49:23;;;;;;;16.70;1.20;;;13.90;99.90;;;;;;4965229;28;20031;-67
2023/03/13 09:51:59;;;;;;;2.60;1.40;;;14.00;99.90;;;;;;4960106;28;20070;-67
2023/03/13 09:54:36;;;;;;;2.38;0.65;;;14.00;99.90;;;;;;4953690;28;20030;-67
2023/03/13 09:57:33;;;;;;;1.05;0.65;;;14.00;99.90;;;;;;4949298;28;20110;-67
2023/03/13 10:00:13;;;;;;;0.50;0.30;;;14.20;99.90;;;;;;4966374;28;20419;-67
2023/03/13 10:02:56;;;;;;;0.85;0.50;;;14.20;99.90;;;;;;4953434;28;20039;-67
2023/03/13 10:05:28;;;;;;;11.85;0.70;;;14.10;99.90;;;;;;4952234;29;20034;-66
2023/03/13 10:08:16;;;;;;;0.70;0.38;;;14.20;99.90;;;;;;4945182;29;20235;-66
2023/03/13 10:10:44;;;;;;;4.75;0.57;;;14.40;99.90;;;;;;4953516;28;20519;-66
2023/03/13 10:13:48;;;;;;;5.53;1.83;;;14.60;99.90;;;;;;4945429;28;20130;-67
2023/03/13 10:16:27;;;;;;;0.80;0.65;;;15.00;99.90;;;;;;4953066;28;20428;-66
2023/03/13 10:18:58;;;;;;;2.88;0.40;;;15.30;99.90;;;;;;4945033;28;20049;-67
2023/03/13 10:21:34;;;;;;;2.13;0.67;;;15.60;99.90;;;;;;4967680;28;20039;-67
2023/03/13 10:24:22;;;;;;;4.40;0.98;;;15.70;99.90;;;;;;4943712;28;20055;-67
2023/03/13 10:26:48;;;;;;;1.88;0.55;;;15.60;99.90;;;;;;4953282;28;20074;-67
2023/03/13 10:29:20;;;;;;;3.13;0.68;;;15.60;99.90;;;;;;4948238;28;20404;-67
2023/03/13 10:32:03;;;;;;;3.20;1.13;;;15.40;99.90;;;;;;4950702;28;20162;-68
2023/03/13 10:34:56;;;;;;;1.67;0.60;;;15.50;99.90;;;;;;4947213;29;20031;-68
2023/03/13 10:37:38;;;;;;;1.33;0.57;;;15.40;99.90;;;;;;4934515;29;20038;-68
2023/03/13 10:40:19;;;;;;;1.45;0.85;;;15.60;99.90;;;;;;4963860;28;20479;-69
2023/03/13 10:42:45;;;;;;;19.90;3.08;;;15.70;99.90;;;;;;4952331;28;20382;-69
2023/03/13 10:45:18;;;;;;;3.97;1.65;;;15.70;99.90;;;;;;4967158;28;20047;-68
2023/03/13 10:47:44;;;;;;;0.85;0.55;;;15.80;99.90;;;;;;4946374;28;20130;-68
2023/03/13 10:50:20;;;;;;;1.38;0.90;;;15.80;99.90;;;;;;4974206;28;20097;-68
2023/03/13 10:52:48;;;;;;;3.17;0.55;;;15.80;99.90;;;;;;4959801;28;20035;-68
2023/03/13 10:55:20;;;;;;;2.80;1.15;;;15.90;99.90;;;;;;4952725;29;20081;-68
2023/03/13 10:58:04;;;;;;;4.38;0.40;;;16.30;99.90;;;;;;4959947;28;20032;-68
2023/03/13 11:00:40;;;;;;;3.22;1.05;;;16.30;99.90;;;;;;4952681;28;20031;-69
2023/03/13 11:03:21;;;;;;;1.10;0.50;;;16.40;99.90;;;;;;4943624;28;20055;-66
2023/03/13 11:06:02;;;;;;;0.88;0.30;;;16.60;99.90;;;;;;4952939;28;20514;-66
2023/03/13 11:08:40;;;;;;;0.60;0.38;;;16.70;99.90;;;;;;4952154;28;20031;-65
2023/03/13 11:11:19;;;;;;;1.15;0.63;;;16.80;99.90;;;;;;4935396;29;20031;-64
2023/03/13 11:13:45;;;;;;;1.67;0.98;;;16.90;99.90;;;;;;4966977;28;20491;-65
2023/03/13 11:16:22;;;;;;;1.77;0.75;;;17.10;99.90;;;;;;4952529;28;20045;-66
2023/03/13 11:19:19;;;;;;;1.80;0.60;;;17.40;99.90;;;;;;4950819;29;20050;-65
2023/03/13 11:22:04;;;;;;;2.60;0.85;;;16.90;99.90;;;;;;4948236;28;20415;-67
2023/03/13 11:24:51;;;;;;;0.73;0.50;;;16.90;99.90;;;;;;4960392;28;20090;-72
2023/03/13 11:27:23;;;;;;;5.70;0.55;;;16.80;99.90;;;;;;4962612;28;20031;-73
2023/03/13 11:30:21;;;;;;;1.13;0.68;;;16.80;99.90;;;;;;4951967;28;20671;-68
2023/03/13 11:33:20;;;;;;;1.42;0.57;;;16.80;99.90;;;;;;4933763;29;20175;-71
2023/03/13 11:36:00;;;;;;;1.15;0.52;;;17.10;99.90;;;;;;4963901;28;20031;-71
2023/03/13 11:38:38;;;;;;;1.60;0.60;;;17.50;99.90;;;;;;4957900;28;20036;-71
2023/03/13 11:41:46;;;;;;;2.05;0.90;;;18.10;99.90;;;;;;4952540;28;20031;-71
2023/03/13 11:44:42;;;;;;;1.05;0.57;;;17.90;99.90;;;;;;4956167;28;20129;-70
2023/03/13 11:47:39;;;;;;;2.28;0.90;;;17.80;99.90;;;;;;4950915;28;20043;-71
2023/03/13 11:50:24;;;;;;;1.02;0.43;;;17.80;99.90;;;;;;4951837;28;20036;-71
2023/03/13 11:53:34;;;;;;;2.10;0.70;;;17.50;99.90;;;;;;4952977;28;20437;-72
2023/03/13 11:56:21;;;;;;;1.58;0.80;;;17.80;99.90;;;;;;4953446;28;20491;-70
2023/03/13 11:58:56;;;;;;;2.45;0.85;;;18.40;99.90;;;;;;4964670;28;20069;-71
2023/03/13 12:01:27;;;;;;;2.05;1.00;;;19.50;99.90;;;;;;4957366;28;20078;-71
2023/03/13 12:04:18;;;;;;;5.07;0.40;;;20.20;99.90;;;;;;4965005;28;20570;-70
2023/03/13 12:07:35;;;;;;;8.93;1.63;;;19.90;99.90;;;;;;4972122;28;20118;-71
2023/03/13 12:10:04;;;;;;;1.42;0.77;;;20.60;99.90;;;;;;4954339;28;20051;-71
2023/03/13 12:12:50;;;;;;;0.73;0.45;;;21.10;99.90;;;;;;4971832;28;20042;-70
2023/03/13 12:15:41;;;;;;;0.73;0.43;;;21.20;99.90;;;;;;4972766;28;20023;-71
2023/03/13 12:18:38;;;;;;;6.95;1.10;;;22.10;98.40;;;;;;4972201;28;20046;-71
2023/03/13 12:21:22;;;;;;;7.25;1.55;;;22.30;97.30;;;;;;4956604;28;20039;-71
2023/03/13 12:24:17;;;;;;;2.10;0.60;;;23.00;96.20;;;;;;4957635;28;20115;-71
2023/03/13 12:26:53;;;;;;;0.88;0.55;;;21.20;98.20;;;;;;4968043;28;20094;-73
2023/03/13 12:29:28;;;;;;;1.23;0.52;;;20.20;99.90;;;;;;4964989;28;20295;-72
2023/03/13 12:32:31;;;;;;;2.95;0.85;;;20.80;99.90;;;;;;4957352;28;20043;-73
2023/03/13 12:35:13;;;;;;;14.85;2.88;;;20.20;99.90;;;;;;4956400;28;20027;-73
2023/03/13 12:37:53;;;;;;;1.85;0.73;;;20.00;99.90;;;;;;4970384;28;20031;-72
2023/03/13 12:40:40;;;;;;;32.13;2.05;;;20.10;99.90;;;;;;4962574;28;20093;-71
2023/03/13 12:43:22;;;;;;;1.65;1.00;;;20.40;99.90;;;;;;4969807;28;20093;-72
2023/03/13 12:45:57;;;;;;;1.48;0.47;;;20.50;99.90;;;;;;4970504;28;20126;-72
2023/03/13 12:48:50;;;;;;;0.85;0.40;;;20.10;99.90;;;;;;4970999;28;20042;-72
2023/03/13 12:52:01;;;;;;;2.67;0.80;;;19.80;99.90;;;;;;4972354;28;20098;-75
2023/03/13 12:55:17;;;;;;;1.02;0.50;;;19.30;99.90;;;;;;4951320;29;20031;-74
2023/03/13 12:58:09;;;;;;;4.18;0.75;;;19.40;99.90;;;;;;4969824;28;20042;-75
2023/03/13 13:00:38;;;;;;;4.75;0.90;;;19.10;99.90;;;;;;4952097;29;20082;-76
2023/03/13 13:03:12;;;;;;;0.85;0.50;;;19.10;99.90;;;;;;4971941;28;20038;-76
2023/03/13 13:05:38;;;;;;;5.00;0.70;;;19.30;99.90;;;;;;4958178;28;20027;-76
2023/03/13 13:08:04;;;;;;;7.15;0.60;;;19.60;99.90;;;;;;4953643;28;20034;-76
2023/03/13 13:10:30;;;;;;;1.83;0.50;;;19.70;99.90;;;;;;4954765;28;20107;-76
2023/03/13 13:13:13;;;;;;;5.18;0.63;;;19.90;99.90;;;;;;4954160;28;20039;-75